Airfield :
LOGIN :

Register | Disclaimer

   EN    FR    IT 

 










Legend :    VFR   Marginal VFR   IFR   Intensive IFR   Very Intensive IFR
Visi :
Ceiling :
>= 8 km
>= 3000ft
5 to 8 km
1000 to 3000 ft
1500m to 5 km
500 to 1000 ft
800 to 1500m
200 to 500 ft
< 800m
< 200 ft
Symbols :   Thunderstorms  Fog  Heavy snow  Heavy precipitations  Wind > 20 kt
SIGMETs :     Misc.  Thunderstorms  Icing  Turbulence  Mountain Waves  Volcanic Ashes






- Airport Elevation : 325 ft
- IATA code : BES


LFRB - Brest

CURRENT METAR :
  • 152300Z AUTO 26007KT 230V290 9999 -RA SCT024/// BKN029/// BKN035/// ///CB 08/06 Q1000 BECMG SCT025 BKN040

EXPIRED METARs :
  • 152230Z AUTO 21016KT 9999 FEW027/// SCT034/// BKN054/// ///CB 10/06 Q1000 BECMG 19005KT SCT025 BKN040
  • 152200Z AUTO 21017KT 9999 FEW008/// SCT023/// BKN028/// ///CB 10/07 Q1000 BECMG SCT025 BKN040
  • 152130Z AUTO 21013KT 9999 BKN025/// BKN031/// BKN039/// ///CB 10/07 Q1000 BECMG SCT025 BKN040
  • 152100Z AUTO 20018KT 9999 BKN029/// BKN034/// BKN044/// ///TCU 10/07 Q1000 BECMG SCT025 BKN040
  • 152030Z AUTO 20014KT 9999 BKN026 BKN031 OVC038 10/07 Q1000 NOSIG

TAF TAF LFRB
Valid from the 15 at 18:00 until the 17 at 00:00 UTC


151700Z 1518/1624 21014KT 9999 SCT025 BKN040
TEMPO 1518/1606 -SHRA
PROB40
TEMPO 1518/1520 24018G28KT SHRA SCT018CB
BECMG 1600/1603 19005KT
BECMG 1606/1609 OVC010
TEMPO 1609/1624 4000 -RADZ BKN006
ATIS : +33 2 98 32 02 71



MET'MAP, your aeronautical weather chart ! - Copyright ORBIFLY December 2007 - Disclaimer

ORBIFLY MET'MAP TEAM :

Programming & Development : Alexandra Zaïnal
Concept & original design : Baudouin d'Aumeries
Assistance for programming : Marc-Olivier Méhu
Technical & hardware support : Manuel Goepfert

Contact : metmap@orbifly.com




SOURCES & CREDITS :

   NOAA